sensor_id;sensor_type;location;lat;lon;timestamp;pressure;altitude;pressure_sealevel;temperature;humidity
73016;BME280;61893;50.074;14.440;2023-03-14T00:00:27;96821.03;;;10.29;78.67
73016;BME280;61893;50.074;14.440;2023-03-14T00:07:43;96834.16;;;10.31;79.11
73016;BME280;61893;50.074;14.440;2023-03-14T00:49:23;96716.16;;;10.32;78.98
73016;BME280;61893;50.074;14.440;2023-03-14T00:57:35;96673.00;;;9.74;86.11
73016;BME280;61893;50.074;14.440;2023-03-14T01:19:31;96552.84;;;9.37;87.38
73016;BME280;61893;50.074;14.440;2023-03-14T01:22:47;96590.28;;;9.20;88.53
73016;BME280;61893;50.074;14.440;2023-03-14T02:15:16;96564.09;;;9.39;87.88
73016;BME280;61893;50.074;14.440;2023-03-14T02:29:33;96591.94;;;9.78;86.03
73016;BME280;61893;50.074;14.440;2023-03-14T02:48:57;96582.44;;;9.97;84.81
73016;BME280;61893;50.074;14.440;2023-03-14T03:06:36;96488.09;;;10.07;81.27
73016;BME280;61893;50.074;14.440;2023-03-14T03:29:06;96495.50;;;9.77;85.85
73016;BME280;61893;50.074;14.440;2023-03-14T03:35:06;96493.16;;;9.61;85.47
73016;BME280;61893;50.074;14.440;2023-03-14T03:37:39;96492.97;;;9.56;84.80
73016;BME280;61893;50.074;14.440;2023-03-14T04:03:46;96525.41;;;9.58;84.66
73016;BME280;61893;50.074;14.440;2023-03-14T04:25:12;96538.69;;;9.58;83.09
73016;BME280;61893;50.074;14.440;2023-03-14T04:46:40;96538.16;;;9.69;85.22
73016;BME280;61893;50.074;14.440;2023-03-14T04:50:23;96551.03;;;9.72;85.91
73016;BME280;61893;50.074;14.440;2023-03-14T05:25:09;96518.19;;;9.80;84.84
73016;BME280;61893;50.074;14.440;2023-03-14T05:28:45;96516.16;;;9.82;84.92
73016;BME280;61893;50.074;14.440;2023-03-14T05:34:59;96502.91;;;9.88;83.74
73016;BME280;61893;50.074;14.440;2023-03-14T05:37:26;96494.31;;;9.86;83.91
73016;BME280;61893;50.074;14.440;2023-03-14T05:44:30;96516.84;;;9.97;83.38
73016;BME280;61893;50.074;14.440;2023-03-14T06:57:21;96538.38;;;11.10;72.98
73016;BME280;61893;50.074;14.440;2023-03-14T09:41:21;96592.34;;;13.07;58.29
73016;BME280;61893;50.074;14.440;2023-03-14T12:56:24;96510.91;;;12.66;54.74
73016;BME280;61893;50.074;14.440;2023-03-14T13:01:33;96505.31;;;12.43;55.29
73016;BME280;61893;50.074;14.440;2023-03-14T13:04:08;96497.63;;;12.53;54.77
73016;BME280;61893;50.074;14.440;2023-03-14T13:06:58;96507.25;;;12.60;55.07
73016;BME280;61893;50.074;14.440;2023-03-14T13:13:19;96496.78;;;12.91;54.20
73016;BME280;61893;50.074;14.440;2023-03-14T13:16:03;96492.09;;;12.86;53.87
73016;BME280;61893;50.074;14.440;2023-03-14T13:18:37;96491.16;;;12.74;54.12
73016;BME280;61893;50.074;14.440;2023-03-14T13:23:38;96505.09;;;12.76;54.33
73016;BME280;61893;50.074;14.440;2023-03-14T13:26:14;96490.31;;;12.73;54.31
73016;BME280;61893;50.074;14.440;2023-03-14T13:28:41;96485.84;;;12.67;53.86
73016;BME280;61893;50.074;14.440;2023-03-14T13:31:20;96480.59;;;12.85;53.81
73016;BME280;61893;50.074;14.440;2023-03-14T13:33:46;96479.38;;;12.81;53.78
73016;BME280;61893;50.074;14.440;2023-03-14T13:36:13;96477.97;;;12.79;53.70
73016;BME280;61893;50.074;14.440;2023-03-14T13:38:39;96465.78;;;13.15;53.71
73016;BME280;61893;50.074;14.440;2023-03-14T13:41:06;96467.31;;;13.29;52.97
73016;BME280;61893;50.074;14.440;2023-03-14T13:43:39;96461.41;;;13.20;52.82
73016;BME280;61893;50.074;14.440;2023-03-14T13:46:22;96474.09;;;13.50;52.05
73016;BME280;61893;50.074;14.440;2023-03-14T13:48:55;96471.06;;;13.21;52.56
73016;BME280;61893;50.074;14.440;2023-03-14T13:51:38;96465.56;;;13.41;52.20
73016;BME280;61893;50.074;14.440;2023-03-14T13:54:15;96473.88;;;13.51;51.71
73016;BME280;61893;50.074;14.440;2023-03-14T13:56:43;96471.88;;;13.22;52.39
73016;BME280;61893;50.074;14.440;2023-03-14T13:59:32;96476.84;;;13.18;52.61
73016;BME280;61893;50.074;14.440;2023-03-14T14:02:04;96469.78;;;13.05;52.83
73016;BME280;61893;50.074;14.440;2023-03-14T14:07:12;96462.59;;;13.24;52.67
73016;BME280;61893;50.074;14.440;2023-03-14T14:09:58;96466.06;;;13.06;52.91
73016;BME280;61893;50.074;14.440;2023-03-14T14:15:13;96458.66;;;12.83;53.48
73016;BME280;61893;50.074;14.440;2023-03-14T14:20:39;96475.50;;;12.52;54.60
73016;BME280;61893;50.074;14.440;2023-03-14T14:23:11;96478.38;;;12.51;55.23
73016;BME280;61893;50.074;14.440;2023-03-14T14:25:38;96483.41;;;12.34;56.43
73016;BME280;61893;50.074;14.440;2023-03-14T14:41:53;96507.06;;;11.32;72.21
73016;BME280;61893;50.074;14.440;2023-03-14T14:44:32;96506.66;;;11.35;73.38
73016;BME280;61893;50.074;14.440;2023-03-14T14:47:03;96508.09;;;11.11;74.69
73016;BME280;61893;50.074;14.440;2023-03-14T14:49:31;96501.94;;;11.24;75.86
73016;BME280;61893;50.074;14.440;2023-03-14T14:52:48;96500.50;;;11.21;76.53
73016;BME280;61893;50.074;14.440;2023-03-14T14:54:57;96481.22;;;11.53;74.16
73016;BME280;61893;50.074;14.440;2023-03-14T14:57:28;96460.56;;;11.35;75.50
73016;BME280;61893;50.074;14.440;2023-03-14T15:00:07;96473.25;;;11.46;76.03
73016;BME280;61893;50.074;14.440;2023-03-14T15:02:48;96473.13;;;11.08;78.08
73016;BME280;61893;50.074;14.440;2023-03-14T15:05:24;96474.94;;;11.07;77.37
73016;BME280;61893;50.074;14.440;2023-03-14T15:08:12;96467.16;;;11.05;77.74
73016;BME280;61893;50.074;14.440;2023-03-14T15:10:40;96466.09;;;11.26;77.56
73016;BME280;61893;50.074;14.440;2023-03-14T15:13:06;96458.97;;;11.00;77.92
73016;BME280;61893;50.074;14.440;2023-03-14T15:15:43;96458.97;;;10.87;77.91
73016;BME280;61893;50.074;14.440;2023-03-14T15:18:28;96461.44;;;11.02;78.04
73016;BME280;61893;50.074;14.440;2023-03-14T15:21:10;96462.88;;;10.91;78.05
73016;BME280;61893;50.074;14.440;2023-03-14T15:23:37;96470.88;;;10.85;78.23
73016;BME280;61893;50.074;14.440;2023-03-14T15:26:11;96469.63;;;10.94;77.97
73016;BME280;61893;50.074;14.440;2023-03-14T15:28:41;96476.78;;;11.07;76.85
73016;BME280;61893;50.074;14.440;2023-03-14T15:31:09;96480.25;;;11.07;77.25
73016;BME280;61893;50.074;14.440;2023-03-14T15:33:37;96488.03;;;11.15;75.40
73016;BME280;61893;50.074;14.440;2023-03-14T15:36:13;96487.63;;;10.92;77.74
73016;BME280;61893;50.074;14.440;2023-03-14T15:38:45;96486.19;;;10.96;77.58
73016;BME280;61893;50.074;14.440;2023-03-14T15:41:11;96482.13;;;11.00;77.66
73016;BME280;61893;50.074;14.440;2023-03-14T15:43:38;96484.16;;;11.04;77.14
73016;BME280;61893;50.074;14.440;2023-03-14T15:46:05;96486.00;;;11.17;76.41
73016;BME280;61893;50.074;14.440;2023-03-14T15:48:49;96474.75;;;11.02;76.55
73016;BME280;61893;50.074;14.440;2023-03-14T15:51:31;96489.50;;;11.04;76.95
73016;BME280;61893;50.074;14.440;2023-03-14T15:53:58;96480.06;;;11.09;76.32
73016;BME280;61893;50.074;14.440;2023-03-14T15:56:42;96488.47;;;10.99;77.00
73016;BME280;61893;50.074;14.440;2023-03-14T15:59:09;96480.69;;;10.97;76.99
73016;BME280;61893;50.074;14.440;2023-03-14T16:02:11;96473.72;;;11.03;76.50
73016;BME280;61893;50.074;14.440;2023-03-14T16:04:53;96474.94;;;11.00;76.46
73016;BME280;61893;50.074;14.440;2023-03-14T16:07:54;96473.72;;;10.76;77.28
73016;BME280;61893;50.074;14.440;2023-03-14T16:10:36;96467.78;;;10.68;77.48
73016;BME280;61893;50.074;14.440;2023-03-14T16:13:56;96476.34;;;10.50;78.26
73016;BME280;61893;50.074;14.440;2023-03-14T16:16:40;96478.19;;;10.43;78.39
73016;BME280;61893;50.074;14.440;2023-03-14T16:19:24;96479.41;;;10.40;78.66
73016;BME280;61893;50.074;14.440;2023-03-14T16:22:07;96477.53;;;10.34;78.93
73016;BME280;61893;50.074;14.440;2023-03-14T16:25:14;96478.50;;;10.20;79.19
73016;BME280;61893;50.074;14.440;2023-03-14T16:27:58;96480.75;;;10.16;79.72
73016;BME280;61893;50.074;14.440;2023-03-14T16:30:42;96488.91;;;10.21;79.49
73016;BME280;61893;50.074;14.440;2023-03-14T16:33:26;96492.78;;;10.12;80.14
73016;BME280;61893;50.074;14.440;2023-03-14T16:36:09;96494.44;;;10.13;80.14
73016;BME280;61893;50.074;14.440;2023-03-14T16:38:51;96492.53;;;10.07;79.53
73016;BME280;61893;50.074;14.440;2023-03-14T16:41:19;96495.19;;;10.07;80.07
73016;BME280;61893;50.074;14.440;2023-03-14T16:43:46;96499.72;;;10.06;80.21
73016;BME280;61893;50.074;14.440;2023-03-14T16:46:21;96495.81;;;10.02;80.84
73016;BME280;61893;50.074;14.440;2023-03-14T16:48:50;96502.94;;;9.95;81.59
73016;BME280;61893;50.074;14.440;2023-03-14T16:51:47;96502.13;;;9.95;81.29
73016;BME280;61893;50.074;14.440;2023-03-14T16:57:14;96528.84;;;9.86;81.87
73016;BME280;61893;50.074;14.440;2023-03-14T16:59:46;96551.97;;;9.92;82.59
73016;BME280;61893;50.074;14.440;2023-03-14T17:02:24;96575.25;;;9.90;83.41
73016;BME280;61893;50.074;14.440;2023-03-14T17:05:07;96577.81;;;9.70;83.76
73016;BME280;61893;50.074;14.440;2023-03-14T17:10:14;96586.88;;;9.55;82.51
73016;BME280;61893;50.074;14.440;2023-03-14T17:12:54;96590.41;;;9.34;82.10
73016;BME280;61893;50.074;14.440;2023-03-14T17:18:08;96613.09;;;9.15;82.08
73016;BME280;61893;50.074;14.440;2023-03-14T17:20:57;96627.31;;;9.07;82.48
73016;BME280;61893;50.074;14.440;2023-03-14T17:23:43;96631.84;;;8.92;82.01
73016;BME280;61893;50.074;14.440;2023-03-14T17:26:16;96631.78;;;8.85;83.59
73016;BME280;61893;50.074;14.440;2023-03-14T17:28:44;96643.84;;;8.88;82.35
73016;BME280;61893;50.074;14.440;2023-03-14T17:33:51;96644.13;;;8.78;83.66
73016;BME280;61893;50.074;14.440;2023-03-14T17:39:02;96645.00;;;8.64;84.85
73016;BME280;61893;50.074;14.440;2023-03-14T17:41:37;96646.56;;;8.73;84.08
73016;BME280;61893;50.074;14.440;2023-03-14T17:44:06;96657.06;;;8.66;84.80
73016;BME280;61893;50.074;14.440;2023-03-14T17:46:48;96666.41;;;8.62;85.14
73016;BME280;61893;50.074;14.440;2023-03-14T17:49:29;96661.19;;;8.69;85.31
73016;BME280;61893;50.074;14.440;2023-03-14T17:52:09;96666.78;;;8.59;86.04
73016;BME280;61893;50.074;14.440;2023-03-14T17:54:59;96675.91;;;8.71;85.67
73016;BME280;61893;50.074;14.440;2023-03-14T17:57:50;96682.31;;;8.62;86.36
73016;BME280;61893;50.074;14.440;2023-03-14T18:00:25;96680.75;;;8.68;86.64
73016;BME280;61893;50.074;14.440;2023-03-14T18:02:51;96687.72;;;8.54;86.78
73016;BME280;61893;50.074;14.440;2023-03-14T18:05:37;96705.34;;;8.62;85.92
73016;BME280;61893;50.074;14.440;2023-03-14T18:08:14;96726.00;;;8.66;85.02
73016;BME280;61893;50.074;14.440;2023-03-14T18:10:40;96736.06;;;8.71;84.69
73016;BME280;61893;50.074;14.440;2023-03-14T18:13:22;96766.50;;;8.75;84.34
73016;BME280;61893;50.074;14.440;2023-03-14T18:16:04;96792.38;;;8.73;83.83
73016;BME280;61893;50.074;14.440;2023-03-14T18:18:51;96793.66;;;8.62;83.62
73016;BME280;61893;50.074;14.440;2023-03-14T18:21:35;96828.00;;;8.55;81.22
73016;BME280;61893;50.074;14.440;2023-03-14T18:24:31;96850.53;;;8.60;78.20
73016;BME280;61893;50.074;14.440;2023-03-14T18:27:12;96878.00;;;8.44;76.77
73016;BME280;61893;50.074;14.440;2023-03-14T18:29:43;96892.53;;;8.25;75.41
73016;BME280;61893;50.074;14.440;2023-03-14T18:32:09;96890.66;;;8.10;75.88
73016;BME280;61893;50.074;14.440;2023-03-14T18:34:54;96925.19;;;7.94;75.17
73016;BME280;61893;50.074;14.440;2023-03-14T18:37:35;96943.47;;;7.81;75.05
73016;BME280;61893;50.074;14.440;2023-03-14T18:40:41;96941.53;;;7.75;75.00
73016;BME280;61893;50.074;14.440;2023-03-14T18:43:07;96963.44;;;7.60;75.01
73016;BME280;61893;50.074;14.440;2023-03-14T18:45:48;96984.63;;;7.52;75.83
73016;BME280;61893;50.074;14.440;2023-03-14T18:48:29;96987.69;;;7.33;75.38
73016;BME280;61893;50.074;14.440;2023-03-14T18:51:12;97003.72;;;7.39;74.63
73016;BME280;61893;50.074;14.440;2023-03-14T18:56:40;97010.69;;;7.24;75.29
73016;BME280;61893;50.074;14.440;2023-03-14T18:59:26;97029.03;;;7.17;75.19
73016;BME280;61893;50.074;14.440;2023-03-14T19:02:03;97042.63;;;7.06;75.47
73016;BME280;61893;50.074;14.440;2023-03-14T19:07:25;97064.63;;;6.98;74.65
73016;BME280;61893;50.074;14.440;2023-03-14T19:10:06;97075.69;;;6.86;74.68
73016;BME280;61893;50.074;14.440;2023-03-14T19:12:34;97092.53;;;6.85;74.19
73016;BME280;61893;50.074;14.440;2023-03-14T19:17:51;97105.09;;;6.83;74.28
73016;BME280;61893;50.074;14.440;2023-03-14T19:20:20;97113.03;;;6.83;74.32
73016;BME280;61893;50.074;14.440;2023-03-14T19:22:48;97117.00;;;6.79;74.89
73016;BME280;61893;50.074;14.440;2023-03-14T19:25:34;97137.47;;;6.76;74.73
73016;BME280;61893;50.074;14.440;2023-03-14T19:28:01;97145.06;;;6.71;73.80
73016;BME280;61893;50.074;14.440;2023-03-14T19:30:55;97161.84;;;6.54;72.94
73016;BME280;61893;50.074;14.440;2023-03-14T19:33:29;97175.03;;;6.46;72.11
73016;BME280;61893;50.074;14.440;2023-03-14T19:35:58;97175.53;;;6.41;72.30
73016;BME280;61893;50.074;14.440;2023-03-14T19:41:25;97202.19;;;6.22;72.10
73016;BME280;61893;50.074;14.440;2023-03-14T19:44:25;97214.34;;;6.15;71.33
73016;BME280;61893;50.074;14.440;2023-03-14T19:47:40;97242.00;;;6.02;71.21
73016;BME280;61893;50.074;14.440;2023-03-14T19:51:02;97246.97;;;6.05;71.24
73016;BME280;61893;50.074;14.440;2023-03-14T19:53:37;97259.88;;;6.08;71.16
73016;BME280;61893;50.074;14.440;2023-03-14T20:01:39;97310.66;;;5.84;68.38
73016;BME280;61893;50.074;14.440;2023-03-14T20:04:21;97318.22;;;5.79;68.74
73016;BME280;61893;50.074;14.440;2023-03-14T20:07:05;97319.72;;;5.82;67.84
73016;BME280;61893;50.074;14.440;2023-03-14T20:09:55;97334.03;;;5.79;68.55
73016;BME280;61893;50.074;14.440;2023-03-14T20:12:31;97342.97;;;5.78;67.39
73016;BME280;61893;50.074;14.440;2023-03-14T20:14:57;97341.88;;;5.71;67.79
73016;BME280;61893;50.074;14.440;2023-03-14T20:17:43;97354.47;;;5.59;67.95
73016;BME280;61893;50.074;14.440;2023-03-14T20:20:40;97372.47;;;5.46;67.42
73016;BME280;61893;50.074;14.440;2023-03-14T20:23:23;97376.22;;;5.43;68.15
73016;BME280;61893;50.074;14.440;2023-03-14T20:26:12;97388.47;;;5.45;68.45
73016;BME280;61893;50.074;14.440;2023-03-14T20:31:39;97401.94;;;5.41;69.12
73016;BME280;61893;50.074;14.440;2023-03-14T20:34:09;97403.22;;;5.37;69.00
73016;BME280;61893;50.074;14.440;2023-03-14T20:36:36;97417.25;;;5.38;68.79
73016;BME280;61893;50.074;14.440;2023-03-14T20:39:04;97427.41;;;5.33;69.30
73016;BME280;61893;50.074;14.440;2023-03-14T20:41:30;97431.84;;;5.32;68.74
73016;BME280;61893;50.074;14.440;2023-03-14T20:44:29;97447.28;;;5.27;70.88
73016;BME280;61893;50.074;14.440;2023-03-14T20:47:11;97451.97;;;5.33;69.16
73016;BME280;61893;50.074;14.440;2023-03-14T20:50:08;97468.88;;;5.03;69.53
73016;BME280;61893;50.074;14.440;2023-03-14T20:52:50;97473.44;;;5.11;68.65
73016;BME280;61893;50.074;14.440;2023-03-14T20:55:32;97476.63;;;5.05;68.41
73016;BME280;61893;50.074;14.440;2023-03-14T20:58:14;97491.22;;;4.99;69.37
73016;BME280;61893;50.074;14.440;2023-03-14T21:00:48;97495.50;;;5.00;68.72
73016;BME280;61893;50.074;14.440;2023-03-14T21:03:16;97503.75;;;4.87;68.60
73016;BME280;61893;50.074;14.440;2023-03-14T21:08:22;97517.06;;;4.76;68.14
73016;BME280;61893;50.074;14.440;2023-03-14T21:10:53;97514.28;;;4.78;68.11
73016;BME280;61893;50.074;14.440;2023-03-14T21:15:58;97524.16;;;4.76;68.92
73016;BME280;61893;50.074;14.440;2023-03-14T21:18:40;97529.81;;;4.81;68.70
73016;BME280;61893;50.074;14.440;2023-03-14T21:21:09;97533.44;;;4.89;67.30
73016;BME280;61893;50.074;14.440;2023-03-14T21:23:39;97528.69;;;4.83;67.57
73016;BME280;61893;50.074;14.440;2023-03-14T21:26:12;97532.19;;;4.84;66.93
73016;BME280;61893;50.074;14.440;2023-03-14T21:28:37;97549.78;;;4.83;69.10
73016;BME280;61893;50.074;14.440;2023-03-14T21:31:25;97551.06;;;4.69;67.74
73016;BME280;61893;50.074;14.440;2023-03-14T21:33:55;97558.00;;;4.70;67.23
73016;BME280;61893;50.074;14.440;2023-03-14T21:36:22;97545.94;;;4.68;67.75
73016;BME280;61893;50.074;14.440;2023-03-14T21:39:02;97551.75;;;4.62;68.51
73016;BME280;61893;50.074;14.440;2023-03-14T21:41:34;97564.66;;;4.65;67.63
73016;BME280;61893;50.074;14.440;2023-03-14T21:44:02;97572.41;;;4.66;67.77
73016;BME280;61893;50.074;14.440;2023-03-14T21:46:42;97565.63;;;4.64;67.03
73016;BME280;61893;50.074;14.440;2023-03-14T21:49:21;97567.84;;;4.59;67.61
73016;BME280;61893;50.074;14.440;2023-03-14T21:51:51;97577.53;;;4.68;67.14
73016;BME280;61893;50.074;14.440;2023-03-14T21:54:35;97585.44;;;4.68;66.63
73016;BME280;61893;50.074;14.440;2023-03-14T21:57:28;97585.72;;;4.65;66.56
73016;BME280;61893;50.074;14.440;2023-03-14T22:00:03;97585.03;;;4.72;66.44
73016;BME280;61893;50.074;14.440;2023-03-14T22:02:31;97586.16;;;4.70;66.70
73016;BME280;61893;50.074;14.440;2023-03-14T22:05:14;97589.75;;;4.69;65.34
73016;BME280;61893;50.074;14.440;2023-03-14T22:07:58;97592.66;;;4.66;64.83
73016;BME280;61893;50.074;14.440;2023-03-14T22:10:26;97599.56;;;4.57;65.43
73016;BME280;61893;50.074;14.440;2023-03-14T22:13:14;97600.00;;;4.53;65.26
73016;BME280;61893;50.074;14.440;2023-03-14T22:15:42;97601.94;;;4.50;64.99
73016;BME280;61893;50.074;14.440;2023-03-14T22:18:09;97605.28;;;4.53;64.92
73016;BME280;61893;50.074;14.440;2023-03-14T22:20:36;97606.66;;;4.47;63.63
73016;BME280;61893;50.074;14.440;2023-03-14T22:23:03;97613.03;;;4.44;64.19
73016;BME280;61893;50.074;14.440;2023-03-14T22:25:47;97613.84;;;4.35;64.28
73016;BME280;61893;50.074;14.440;2023-03-14T22:28:29;97627.41;;;4.40;64.44
73016;BME280;61893;50.074;14.440;2023-03-14T22:30:56;97629.78;;;4.43;64.99
73016;BME280;61893;50.074;14.440;2023-03-14T22:33:38;97625.22;;;4.45;64.34
73016;BME280;61893;50.074;14.440;2023-03-14T22:36:21;97627.03;;;4.35;64.16
73016;BME280;61893;50.074;14.440;2023-03-14T22:38:48;97634.38;;;4.41;64.22
73016;BME280;61893;50.074;14.440;2023-03-14T22:41:15;97646.28;;;4.45;63.85
73016;BME280;61893;50.074;14.440;2023-03-14T22:43:42;97650.44;;;4.38;63.49
73016;BME280;61893;50.074;14.440;2023-03-14T22:46:09;97656.94;;;4.34;64.44
73016;BME280;61893;50.074;14.440;2023-03-14T22:48:54;97657.47;;;4.28;63.61
73016;BME280;61893;50.074;14.440;2023-03-14T22:51:35;97661.91;;;4.27;63.06
73016;BME280;61893;50.074;14.440;2023-03-14T22:54:20;97674.94;;;4.29;62.25
73016;BME280;61893;50.074;14.440;2023-03-14T22:56:58;97669.44;;;4.32;62.92
73016;BME280;61893;50.074;14.440;2023-03-14T22:59:25;97667.63;;;4.33;62.62
73016;BME280;61893;50.074;14.440;2023-03-14T23:01:54;97664.56;;;4.27;62.97
73016;BME280;61893;50.074;14.440;2023-03-14T23:04:20;97678.97;;;4.33;62.73
73016;BME280;61893;50.074;14.440;2023-03-14T23:06:47;97686.31;;;4.29;61.84
73016;BME280;61893;50.074;14.440;2023-03-14T23:09:13;97688.69;;;4.33;64.22
73016;BME280;61893;50.074;14.440;2023-03-14T23:11:41;97692.28;;;4.32;63.18
73016;BME280;61893;50.074;14.440;2023-03-14T23:14:07;97698.63;;;4.29;63.23
73016;BME280;61893;50.074;14.440;2023-03-14T23:16:37;97687.97;;;4.31;63.15
73016;BME280;61893;50.074;14.440;2023-03-14T23:19:03;97701.03;;;4.32;64.47
73016;BME280;61893;50.074;14.440;2023-03-14T23:21:31;97701.28;;;4.29;62.43
73016;BME280;61893;50.074;14.440;2023-03-14T23:23:56;97705.97;;;4.25;63.65
73016;BME280;61893;50.074;14.440;2023-03-14T23:26:37;97710.03;;;4.29;64.80
73016;BME280;61893;50.074;14.440;2023-03-14T23:29:06;97715.59;;;4.05;64.96
73016;BME280;61893;50.074;14.440;2023-03-14T23:31:33;97723.69;;;4.23;64.14
73016;BME280;61893;50.074;14.440;2023-03-14T23:34:29;97727.03;;;4.25;66.83
73016;BME280;61893;50.074;14.440;2023-03-14T23:37:10;97720.31;;;4.52;63.57
73016;BME280;61893;50.074;14.440;2023-03-14T23:39:57;97728.38;;;4.41;64.25
73016;BME280;61893;50.074;14.440;2023-03-14T23:42:38;97727.09;;;4.35;63.95
73016;BME280;61893;50.074;14.440;2023-03-14T23:45:04;97731.09;;;4.29;65.11
73016;BME280;61893;50.074;14.440;2023-03-14T23:50:20;97737.75;;;4.34;66.44
73016;BME280;61893;50.074;14.440;2023-03-14T23:52:49;97742.56;;;4.28;64.05
73016;BME280;61893;50.074;14.440;2023-03-14T23:55:15;97736.09;;;4.33;66.36
73016;BME280;61893;50.074;14.440;2023-03-14T23:58:05;97746.09;;;4.39;62.92
